QFA3479 YSSY-YMML
Flight info
| Callsign | QFA3479 |
|---|---|
| Flight time | 1h 8m |
| Altitude | 36000 |
| Route | WOL2 WOL H65 LEECE Q29 ML DCT |
| Aircraft | A321/M-SDE3FGHIRWY/LB1 |
Departure
| Time | 2026-05-07 22:34 |
|---|---|
| Airport | Sydney Kingsford Smith International Airport (YSSY) |
Arrival
| Time | 2026-05-07 23:42 |
|---|---|
| Airport | Melbourne Airport (YMML) |
| Time | Latitude | Longitude | Altitude | Speed | Heading |
|---|---|---|---|---|---|
| 2026-05-07 22:01 | -33.93569 | 151.16811 | 28 ft | 0 kts | 237° |
| 2026-05-07 22:21 | -33.93565 | 151.16818 | 29 ft | 2 kts | 237° |
| 2026-05-07 22:21 | -33.93557 | 151.16834 | 28 ft | 2 kts | 237° |
| 2026-05-07 22:21 | -33.93549 | 151.16849 | 29 ft | 2 kts | 237° |
| 2026-05-07 22:21 | -33.93540 | 151.16864 | 29 ft | 2 kts | 247° |
| 2026-05-07 22:22 | -33.93539 | 151.16882 | 28 ft | 2 kts | 269° |
| 2026-05-07 22:22 | -33.93534 | 151.16899 | 29 ft | 2 kts | 235° |
| 2026-05-07 22:22 | -33.93524 | 151.16913 | 28 ft | 2 kts | 213° |
| 2026-05-07 22:22 | -33.93515 | 151.16919 | 28 ft | 2 kts | 198° |
| 2026-05-07 22:23 | -33.93495 | 151.16921 | 28 ft | 2 kts | 168° |
| 2026-05-07 22:23 | -33.93480 | 151.16916 | 29 ft | 2 kts | 166° |
| 2026-05-07 22:23 | -33.93466 | 151.16911 | 28 ft | 2 kts | 168° |
| 2026-05-07 22:23 | -33.93458 | 151.16910 | 28 ft | 0 kts | 167° |
| 2026-05-07 22:25 | -33.93460 | 151.16910 | 28 ft | 1 kts | 167° |
| 2026-05-07 22:25 | -33.93474 | 151.16914 | 28 ft | 3 kts | 167° |
| 2026-05-07 22:26 | -33.93498 | 151.16928 | 28 ft | 4 kts | 137° |
| 2026-05-07 22:26 | -33.93512 | 151.16969 | 28 ft | 6 kts | 87° |
| 2026-05-07 22:26 | -33.93504 | 151.17027 | 28 ft | 7 kts | 78° |
| 2026-05-07 22:26 | -33.93512 | 151.17093 | 28 ft | 9 kts | 137° |
| 2026-05-07 22:27 | -33.93590 | 151.17127 | 28 ft | 13 kts | 167° |
| 2026-05-07 22:27 | -33.93684 | 151.17152 | 28 ft | 14 kts | 168° |
| 2026-05-07 22:27 | -33.93780 | 151.17177 | 28 ft | 14 kts | 168° |
| 2026-05-07 22:27 | -33.93882 | 151.17203 | 28 ft | 15 kts | 168° |
| 2026-05-07 22:28 | -33.93987 | 151.17230 | 28 ft | 15 kts | 168° |
| 2026-05-07 22:28 | -33.94057 | 151.17247 | 28 ft | 0 kts | 168° |
| 2026-05-07 22:29 | -33.94058 | 151.17248 | 28 ft | 0 kts | 168° |
| 2026-05-07 22:29 | -33.94081 | 151.17253 | 28 ft | 10 kts | 167° |
| 2026-05-07 22:29 | -33.94198 | 151.17285 | 28 ft | 23 kts | 168° |
| 2026-05-07 22:29 | -33.94356 | 151.17325 | 28 ft | 22 kts | 168° |
| 2026-05-07 22:30 | -33.94513 | 151.17366 | 28 ft | 22 kts | 168° |
| 2026-05-07 22:30 | -33.94665 | 151.17404 | 28 ft | 22 kts | 168° |
| 2026-05-07 22:30 | -33.94834 | 151.17447 | 28 ft | 27 kts | 168° |
| 2026-05-07 22:30 | -33.95035 | 151.17499 | 28 ft | 32 kts | 168° |
| 2026-05-07 22:31 | -33.95262 | 151.17560 | 28 ft | 33 kts | 167° |
| 2026-05-07 22:31 | -33.95484 | 151.17616 | 29 ft | 31 kts | 168° |
| 2026-05-07 22:31 | -33.95691 | 151.17671 | 28 ft | 29 kts | 167° |
| 2026-05-07 22:31 | -33.95887 | 151.17722 | 28 ft | 28 kts | 168° |
| 2026-05-07 22:32 | -33.96074 | 151.17770 | 28 ft | 27 kts | 169° |
| 2026-05-07 22:32 | -33.96256 | 151.17816 | 28 ft | 26 kts | 168° |
| 2026-05-07 22:32 | -33.96419 | 151.17886 | 28 ft | 24 kts | 124° |
| 2026-05-07 22:32 | -33.96399 | 151.18050 | 28 ft | 14 kts | 18° |
| 2026-05-07 22:33 | -33.96316 | 151.18037 | 28 ft | 4 kts | 348° |
| 2026-05-07 22:33 | -33.96285 | 151.18028 | 28 ft | 5 kts | 348° |
| 2026-05-07 22:33 | -33.96033 | 151.17964 | 29 ft | 73 kts | 347° |
| 2026-05-07 22:33 | -33.95319 | 151.17776 | 29 ft | 135 kts | 347° |
| 2026-05-07 22:34 | -33.94236 | 151.17493 | 151 ft | 172 kts | 346° |
| 2026-05-07 22:34 | -33.93082 | 151.17207 | 864 ft | 169 kts | 344° |
| 2026-05-07 22:34 | -33.92041 | 151.16722 | 1596 ft | 157 kts | 310° |
| 2026-05-07 22:34 | -33.91423 | 151.15678 | 2151 ft | 159 kts | 292° |
| 2026-05-07 22:35 | -33.90870 | 151.14441 | 2593 ft | 175 kts | 292° |
| 2026-05-07 22:35 | -33.90255 | 151.13112 | 3019 ft | 192 kts | 293° |
| 2026-05-07 22:35 | -33.89790 | 151.11571 | 3417 ft | 200 kts | 266° |
| 2026-05-07 22:35 | -33.90277 | 151.09992 | 3731 ft | 216 kts | 231° |
| 2026-05-07 22:36 | -33.91309 | 151.08607 | 4220 ft | 232 kts | 226° |
| 2026-05-07 22:36 | -33.92416 | 151.07136 | 4933 ft | 241 kts | 227° |
| 2026-05-07 22:36 | -33.93491 | 151.05609 | 5783 ft | 243 kts | 228° |
| 2026-05-07 22:36 | -33.94564 | 151.04009 | 6606 ft | 247 kts | 229° |
| 2026-05-07 22:37 | -33.95615 | 151.02408 | 7408 ft | 249 kts | 229° |
| 2026-05-07 22:37 | -33.96674 | 151.00777 | 8247 ft | 250 kts | 230° |
| 2026-05-07 22:37 | -33.97747 | 150.99132 | 9055 ft | 251 kts | 227° |
| 2026-05-07 22:37 | -33.99095 | 150.97795 | 9829 ft | 253 kts | 211° |
| 2026-05-07 22:38 | -34.00734 | 150.97009 | 10548 ft | 259 kts | 200° |
| 2026-05-07 22:38 | -34.02513 | 150.96413 | 10919 ft | 274 kts | 199° |
| 2026-05-07 22:38 | -34.04409 | 150.95792 | 11224 ft | 291 kts | 199° |
| 2026-05-07 22:38 | -34.06424 | 150.95137 | 11507 ft | 307 kts | 199° |
| 2026-05-07 22:39 | -34.08561 | 150.94443 | 11779 ft | 323 kts | 199° |
| 2026-05-07 22:39 | -34.10778 | 150.93726 | 12042 ft | 338 kts | 199° |
| 2026-05-07 22:39 | -34.13089 | 150.92978 | 12292 ft | 352 kts | 198° |
| 2026-05-07 22:39 | -34.15488 | 150.92203 | 12543 ft | 365 kts | 199° |
| 2026-05-07 22:40 | -34.17988 | 150.91394 | 12976 ft | 371 kts | 199° |
| 2026-05-07 22:40 | -34.20482 | 150.90591 | 13524 ft | 374 kts | 199° |
| 2026-05-07 22:40 | -34.22996 | 150.89781 | 14062 ft | 376 kts | 199° |
| 2026-05-07 22:40 | -34.25531 | 150.88959 | 14574 ft | 379 kts | 199° |
| 2026-05-07 22:41 | -34.28073 | 150.88136 | 15085 ft | 381 kts | 199° |
| 2026-05-07 22:41 | -34.30648 | 150.87299 | 15624 ft | 382 kts | 200° |
| 2026-05-07 22:41 | -34.33212 | 150.86465 | 16118 ft | 384 kts | 200° |
| 2026-05-07 22:41 | -34.35789 | 150.85625 | 16601 ft | 385 kts | 199° |
| 2026-05-07 22:42 | -34.38395 | 150.84776 | 17078 ft | 387 kts | 200° |
| 2026-05-07 22:42 | -34.40987 | 150.83933 | 17493 ft | 389 kts | 200° |
| 2026-05-07 22:42 | -34.43597 | 150.83081 | 17926 ft | 391 kts | 200° |
| 2026-05-07 22:42 | -34.46243 | 150.82219 | 18327 ft | 393 kts | 200° |
| 2026-05-07 22:43 | -34.48873 | 150.81358 | 18717 ft | 395 kts | 200° |
| 2026-05-07 22:43 | -34.51549 | 150.80476 | 19131 ft | 395 kts | 201° |
| 2026-05-07 22:43 | -34.54046 | 150.79222 | 19509 ft | 391 kts | 212° |
| 2026-05-07 22:43 | -34.56295 | 150.77350 | 19907 ft | 388 kts | 221° |
| 2026-05-07 22:44 | -34.58160 | 150.75020 | 20263 ft | 389 kts | 231° |
| 2026-05-07 22:44 | -34.59801 | 150.72385 | 20594 ft | 391 kts | 232° |
| 2026-05-07 22:44 | -34.61421 | 150.69730 | 20909 ft | 393 kts | 233° |
| 2026-05-07 22:44 | -34.63036 | 150.67065 | 21241 ft | 394 kts | 233° |
| 2026-05-07 22:45 | -34.64650 | 150.64391 | 21580 ft | 396 kts | 233° |
| 2026-05-07 22:45 | -34.66273 | 150.61703 | 21868 ft | 398 kts | 233° |
| 2026-05-07 22:45 | -34.67919 | 150.58966 | 22146 ft | 399 kts | 232° |
| 2026-05-07 22:45 | -34.69548 | 150.56259 | 22456 ft | 400 kts | 232° |
| 2026-05-07 22:46 | -34.71198 | 150.53516 | 22726 ft | 402 kts | 233° |
| 2026-05-07 22:46 | -34.72834 | 150.50786 | 22978 ft | 404 kts | 232° |
| 2026-05-07 22:46 | -34.74501 | 150.48004 | 23240 ft | 405 kts | 233° |
| 2026-05-07 22:46 | -34.76147 | 150.45254 | 23486 ft | 406 kts | 232° |
| 2026-05-07 22:47 | -34.77814 | 150.42464 | 23793 ft | 406 kts | 232° |
| 2026-05-07 22:47 | -34.79459 | 150.39717 | 24164 ft | 404 kts | 232° |
| 2026-05-07 22:47 | -34.81108 | 150.36957 | 24540 ft | 403 kts | 232° |
| 2026-05-07 22:47 | -34.82752 | 150.34204 | 24869 ft | 402 kts | 233° |
| 2026-05-07 22:48 | -34.84404 | 150.31436 | 25221 ft | 402 kts | 233° |
| 2026-05-07 22:48 | -34.86028 | 150.28711 | 25615 ft | 400 kts | 232° |
| 2026-05-07 22:48 | -34.87666 | 150.25963 | 25978 ft | 399 kts | 233° |
| 2026-05-07 22:48 | -34.89285 | 150.23247 | 26299 ft | 399 kts | 233° |
| 2026-05-07 22:49 | -34.90902 | 150.20529 | 26632 ft | 399 kts | 232° |
| 2026-05-07 22:49 | -34.92520 | 150.17807 | 26961 ft | 398 kts | 233° |
| 2026-05-07 22:49 | -34.94139 | 150.15080 | 27332 ft | 397 kts | 233° |
| 2026-05-07 22:49 | -34.95767 | 150.12337 | 27667 ft | 396 kts | 232° |
| 2026-05-07 22:50 | -34.97390 | 150.09602 | 27996 ft | 396 kts | 233° |
| 2026-05-07 22:50 | -34.98987 | 150.06906 | 28330 ft | 396 kts | 233° |
| 2026-05-07 22:50 | -35.00610 | 150.04164 | 28721 ft | 394 kts | 233° |
| 2026-05-07 22:50 | -35.02208 | 150.01465 | 29098 ft | 393 kts | 233° |
| 2026-05-07 22:51 | -35.03795 | 149.98781 | 29457 ft | 392 kts | 233° |
| 2026-05-07 22:51 | -35.05376 | 149.96098 | 29819 ft | 391 kts | 233° |
| 2026-05-07 22:51 | -35.06980 | 149.93379 | 30149 ft | 391 kts | 232° |
| 2026-05-07 22:51 | -35.08564 | 149.90695 | 30475 ft | 390 kts | 233° |
| 2026-05-07 22:52 | -35.10133 | 149.88031 | 30791 ft | 389 kts | 232° |
| 2026-05-07 22:52 | -35.11716 | 149.85350 | 31129 ft | 388 kts | 233° |
| 2026-05-07 22:52 | -35.13294 | 149.82667 | 31457 ft | 388 kts | 233° |
| 2026-05-07 22:52 | -35.14857 | 149.80008 | 31796 ft | 387 kts | 233° |
| 2026-05-07 22:53 | -35.16422 | 149.77345 | 32120 ft | 386 kts | 233° |
| 2026-05-07 22:53 | -35.17992 | 149.74674 | 32437 ft | 385 kts | 233° |
| 2026-05-07 22:53 | -35.19549 | 149.72014 | 32712 ft | 386 kts | 233° |
| 2026-05-07 22:53 | -35.21112 | 149.69345 | 32820 ft | 390 kts | 233° |
| 2026-05-07 22:54 | -35.22712 | 149.66620 | 32924 ft | 394 kts | 233° |
| 2026-05-07 22:54 | -35.25917 | 149.61140 | 33095 ft | 401 kts | 233° |
| 2026-05-07 22:54 | -35.27541 | 149.58359 | 33198 ft | 403 kts | 233° |
| 2026-05-07 22:55 | -35.29182 | 149.55545 | 33369 ft | 404 kts | 233° |
| 2026-05-07 22:55 | -35.30820 | 149.52737 | 33582 ft | 403 kts | 233° |
| 2026-05-07 22:55 | -35.32443 | 149.49953 | 33749 ft | 404 kts | 233° |
| 2026-05-07 22:55 | -35.34066 | 149.47168 | 33963 ft | 403 kts | 233° |
| 2026-05-07 22:56 | -35.35710 | 149.44347 | 34166 ft | 403 kts | 233° |
| 2026-05-07 22:56 | -35.37330 | 149.41562 | 34369 ft | 402 kts | 233° |
| 2026-05-07 22:56 | -35.38952 | 149.38773 | 34569 ft | 401 kts | 233° |
| 2026-05-07 22:56 | -35.40567 | 149.35986 | 34717 ft | 402 kts | 233° |
| 2026-05-07 22:57 | -35.42170 | 149.33218 | 34859 ft | 402 kts | 234° |
| 2026-05-07 22:57 | -35.43789 | 149.30429 | 35036 ft | 402 kts | 234° |
| 2026-05-07 22:57 | -35.45400 | 149.27646 | 35212 ft | 401 kts | 234° |
| 2026-05-07 22:57 | -35.47026 | 149.24834 | 35369 ft | 402 kts | 234° |
| 2026-05-07 22:58 | -35.48639 | 149.22047 | 35498 ft | 402 kts | 234° |
| 2026-05-07 22:58 | -35.50251 | 149.19257 | 35645 ft | 402 kts | 234° |
| 2026-05-07 22:58 | -35.51878 | 149.16437 | 35800 ft | 402 kts | 234° |
| 2026-05-07 22:58 | -35.53487 | 149.13650 | 35944 ft | 402 kts | 234° |
| 2026-05-07 22:59 | -35.55087 | 149.10872 | 36069 ft | 402 kts | 234° |
| 2026-05-07 22:59 | -35.56704 | 149.08066 | 36196 ft | 402 kts | 234° |
| 2026-05-07 22:59 | -35.58324 | 149.05246 | 36324 ft | 403 kts | 234° |
| 2026-05-07 22:59 | -35.59934 | 149.02444 | 36443 ft | 404 kts | 234° |
| 2026-05-07 23:00 | -35.61556 | 148.99622 | 36577 ft | 404 kts | 233° |
| 2026-05-07 23:00 | -35.63168 | 148.96815 | 36740 ft | 404 kts | 234° |
| 2026-05-07 23:00 | -35.64780 | 148.94008 | 36889 ft | 404 kts | 234° |
| 2026-05-07 23:00 | -35.66401 | 148.91180 | 37044 ft | 403 kts | 234° |
| 2026-05-07 23:01 | -35.68002 | 148.88385 | 37167 ft | 403 kts | 234° |
| 2026-05-07 23:01 | -35.69621 | 148.85556 | 37280 ft | 404 kts | 234° |
| 2026-05-07 23:01 | -35.71238 | 148.82727 | 37406 ft | 404 kts | 234° |
| 2026-05-07 23:01 | -35.72836 | 148.79932 | 37517 ft | 404 kts | 234° |
| 2026-05-07 23:02 | -35.74452 | 148.77101 | 37602 ft | 405 kts | 234° |
| 2026-05-07 23:02 | -35.77685 | 148.71429 | 37796 ft | 404 kts | 234° |
| 2026-05-07 23:03 | -35.80915 | 148.65759 | 37942 ft | 405 kts | 234° |
| 2026-05-07 23:03 | -35.84133 | 148.60095 | 38073 ft | 406 kts | 234° |
| 2026-05-07 23:04 | -35.87371 | 148.54391 | 38085 ft | 407 kts | 234° |
| 2026-05-07 23:04 | -35.90590 | 148.48686 | 38088 ft | 407 kts | 233° |
| 2026-05-07 23:05 | -35.93826 | 148.42946 | 38081 ft | 407 kts | 234° |
| 2026-05-07 23:05 | -35.97053 | 148.37199 | 38095 ft | 409 kts | 233° |
| 2026-05-07 23:06 | -36.00281 | 148.31451 | 38100 ft | 409 kts | 234° |
| 2026-05-07 23:06 | -36.03516 | 148.25684 | 38103 ft | 409 kts | 233° |
| 2026-05-07 23:07 | -36.06759 | 148.19890 | 38105 ft | 409 kts | 233° |
| 2026-05-07 23:07 | -36.09978 | 148.14130 | 38127 ft | 410 kts | 233° |
| 2026-05-07 23:08 | -36.13220 | 148.08321 | 38134 ft | 411 kts | 233° |
| 2026-05-07 23:08 | -36.16468 | 148.02515 | 38148 ft | 411 kts | 234° |
| 2026-05-07 23:09 | -36.19732 | 147.96669 | 38151 ft | 412 kts | 234° |
| 2026-05-07 23:09 | -36.22969 | 147.90855 | 38155 ft | 412 kts | 233° |
| 2026-05-07 23:10 | -36.26233 | 147.84996 | 38149 ft | 413 kts | 233° |
| 2026-05-07 23:10 | -36.29480 | 147.79149 | 38144 ft | 413 kts | 233° |
| 2026-05-07 23:11 | -36.32726 | 147.73297 | 38143 ft | 414 kts | 233° |
| 2026-05-07 23:11 | -36.35978 | 147.67407 | 38133 ft | 414 kts | 233° |
| 2026-05-07 23:12 | -36.39236 | 147.61490 | 38136 ft | 414 kts | 233° |
| 2026-05-07 23:12 | -36.42486 | 147.55585 | 38133 ft | 414 kts | 233° |
| 2026-05-07 23:13 | -36.45715 | 147.49704 | 38139 ft | 415 kts | 233° |
| 2026-05-07 23:13 | -36.48960 | 147.43788 | 38147 ft | 414 kts | 233° |
| 2026-05-07 23:14 | -36.52197 | 147.37877 | 38153 ft | 414 kts | 233° |
| 2026-05-07 23:14 | -36.55435 | 147.31952 | 38149 ft | 415 kts | 233° |
| 2026-05-07 23:15 | -36.58683 | 147.25995 | 38143 ft | 415 kts | 233° |
| 2026-05-07 23:15 | -36.61917 | 147.20059 | 38154 ft | 416 kts | 233° |
| 2026-05-07 23:16 | -36.65158 | 147.14101 | 38141 ft | 416 kts | 233° |
| 2026-05-07 23:16 | -36.68388 | 147.08148 | 38151 ft | 416 kts | 233° |
| 2026-05-07 23:17 | -36.71634 | 147.02156 | 38161 ft | 416 kts | 233° |
| 2026-05-07 23:17 | -36.74868 | 146.96168 | 38158 ft | 417 kts | 233° |
| 2026-05-07 23:18 | -36.78116 | 146.90152 | 38152 ft | 417 kts | 233° |
| 2026-05-07 23:18 | -36.81331 | 146.84183 | 38140 ft | 417 kts | 233° |
| 2026-05-07 23:19 | -36.84552 | 146.78194 | 38137 ft | 417 kts | 233° |
| 2026-05-07 23:19 | -36.87788 | 146.72165 | 38138 ft | 417 kts | 233° |
| 2026-05-07 23:20 | -36.91002 | 146.66170 | 37995 ft | 417 kts | 233° |
| 2026-05-07 23:20 | -36.92607 | 146.63167 | 37726 ft | 410 kts | 233° |
| 2026-05-07 23:20 | -36.94170 | 146.60240 | 37434 ft | 405 kts | 233° |
| 2026-05-07 23:20 | -36.95745 | 146.57295 | 37108 ft | 401 kts | 233° |
| 2026-05-07 23:21 | -36.97269 | 146.54442 | 36733 ft | 398 kts | 232° |
| 2026-05-07 23:21 | -36.98814 | 146.51549 | 36235 ft | 399 kts | 232° |
| 2026-05-07 23:21 | -37.00347 | 146.48675 | 35595 ft | 401 kts | 233° |
| 2026-05-07 23:21 | -37.01907 | 146.45750 | 34933 ft | 402 kts | 232° |
| 2026-05-07 23:22 | -37.03439 | 146.42868 | 34190 ft | 403 kts | 232° |
| 2026-05-07 23:22 | -37.04998 | 146.39935 | 33443 ft | 402 kts | 233° |
| 2026-05-07 23:22 | -37.06547 | 146.37022 | 32731 ft | 401 kts | 232° |
| 2026-05-07 23:22 | -37.08078 | 146.34131 | 32034 ft | 400 kts | 233° |
| 2026-05-07 23:23 | -37.09624 | 146.31213 | 31314 ft | 400 kts | 233° |
| 2026-05-07 23:23 | -37.11153 | 146.28331 | 30560 ft | 401 kts | 233° |
| 2026-05-07 23:23 | -37.12685 | 146.25436 | 29750 ft | 403 kts | 233° |
| 2026-05-07 23:23 | -37.14230 | 146.22516 | 28954 ft | 405 kts | 233° |
| 2026-05-07 23:24 | -37.15794 | 146.19554 | 28128 ft | 407 kts | 233° |
| 2026-05-07 23:24 | -37.17339 | 146.16625 | 27281 ft | 409 kts | 233° |
| 2026-05-07 23:24 | -37.18901 | 146.13661 | 26406 ft | 411 kts | 233° |
| 2026-05-07 23:24 | -37.20489 | 146.10652 | 25483 ft | 414 kts | 234° |
| 2026-05-07 23:25 | -37.22070 | 146.07649 | 24556 ft | 417 kts | 234° |
| 2026-05-07 23:25 | -37.23668 | 146.04613 | 23617 ft | 420 kts | 234° |
| 2026-05-07 23:25 | -37.25269 | 146.01562 | 22781 ft | 419 kts | 234° |
| 2026-05-07 23:25 | -37.26866 | 145.98518 | 22162 ft | 414 kts | 234° |
| 2026-05-07 23:26 | -37.28393 | 145.95549 | 21550 ft | 410 kts | 236° |
| 2026-05-07 23:26 | -37.29578 | 145.92303 | 20928 ft | 410 kts | 246° |
| 2026-05-07 23:26 | -37.30278 | 145.88825 | 20313 ft | 411 kts | 256° |
| 2026-05-07 23:26 | -37.30485 | 145.85252 | 19706 ft | 413 kts | 264° |
| 2026-05-07 23:27 | -37.30411 | 145.78128 | 18465 ft | 407 kts | 266° |
| 2026-05-07 23:27 | -37.30355 | 145.74559 | 17834 ft | 414 kts | 266° |
| 2026-05-07 23:27 | -37.30342 | 145.70976 | 17184 ft | 409 kts | 262° |
| 2026-05-07 23:28 | -37.30819 | 145.67549 | 16571 ft | 398 kts | 250° |
| 2026-05-07 23:28 | -37.31862 | 145.64377 | 15965 ft | 389 kts | 238° |
| 2026-05-07 23:28 | -37.33329 | 145.61568 | 15369 ft | 383 kts | 231° |
| 2026-05-07 23:28 | -37.34887 | 145.58865 | 14753 ft | 380 kts | 231° |
| 2026-05-07 23:29 | -37.36419 | 145.56236 | 14151 ft | 376 kts | 231° |
| 2026-05-07 23:29 | -37.37963 | 145.53580 | 13559 ft | 372 kts | 231° |
| 2026-05-07 23:29 | -37.39461 | 145.50996 | 12951 ft | 369 kts | 231° |
| 2026-05-07 23:29 | -37.40959 | 145.48404 | 12347 ft | 364 kts | 231° |
| 2026-05-07 23:30 | -37.42449 | 145.45816 | 12056 ft | 363 kts | 231° |
| 2026-05-07 23:30 | -37.43957 | 145.43298 | 11767 ft | 361 kts | 228° |
| 2026-05-07 23:30 | -37.45620 | 145.40959 | 11460 ft | 358 kts | 223° |
| 2026-05-07 23:30 | -37.47417 | 145.38823 | 11173 ft | 355 kts | 219° |
| 2026-05-07 23:31 | -37.49287 | 145.36732 | 10897 ft | 354 kts | 219° |
| 2026-05-07 23:31 | -37.51112 | 145.34708 | 10641 ft | 352 kts | 220° |
| 2026-05-07 23:31 | -37.52933 | 145.32684 | 10392 ft | 339 kts | 219° |
| 2026-05-07 23:31 | -37.54656 | 145.30768 | 10199 ft | 324 kts | 219° |
| 2026-05-07 23:32 | -37.56294 | 145.28947 | 10033 ft | 309 kts | 219° |
| 2026-05-07 23:32 | -37.57896 | 145.27165 | 9719 ft | 300 kts | 219° |
| 2026-05-07 23:32 | -37.59431 | 145.25459 | 9312 ft | 295 kts | 219° |
| 2026-05-07 23:32 | -37.60951 | 145.23770 | 8925 ft | 289 kts | 219° |
| 2026-05-07 23:33 | -37.62445 | 145.22105 | 8558 ft | 283 kts | 220° |
| 2026-05-07 23:33 | -37.63916 | 145.20464 | 8175 ft | 278 kts | 220° |
| 2026-05-07 23:33 | -37.65353 | 145.18860 | 7799 ft | 274 kts | 220° |
| 2026-05-07 23:33 | -37.66759 | 145.17288 | 7422 ft | 269 kts | 220° |
| 2026-05-07 23:34 | -37.68160 | 145.15724 | 7062 ft | 264 kts | 220° |
| 2026-05-07 23:34 | -37.69517 | 145.14206 | 6711 ft | 260 kts | 220° |
| 2026-05-07 23:34 | -37.70864 | 145.12700 | 6371 ft | 256 kts | 220° |
| 2026-05-07 23:34 | -37.72169 | 145.11238 | 5950 ft | 250 kts | 221° |
| 2026-05-07 23:35 | -37.73446 | 145.09808 | 5643 ft | 238 kts | 221° |
| 2026-05-07 23:35 | -37.74651 | 145.08456 | 5507 ft | 223 kts | 221° |
| 2026-05-07 23:35 | -37.75782 | 145.07185 | 5289 ft | 213 kts | 221° |
| 2026-05-07 23:35 | -37.76888 | 145.05945 | 4984 ft | 213 kts | 221° |
| 2026-05-07 23:36 | -37.77994 | 145.04704 | 4689 ft | 212 kts | 221° |
| 2026-05-07 23:36 | -37.79084 | 145.03482 | 4405 ft | 210 kts | 221° |
| 2026-05-07 23:36 | -37.80174 | 145.02260 | 4125 ft | 209 kts | 221° |
| 2026-05-07 23:36 | -37.81137 | 145.00931 | 3970 ft | 203 kts | 237° |
| 2026-05-07 23:37 | -37.81649 | 144.99283 | 3809 ft | 201 kts | 252° |
| 2026-05-07 23:37 | -37.81956 | 144.97560 | 3597 ft | 197 kts | 254° |
| 2026-05-07 23:37 | -37.82241 | 144.95894 | 3337 ft | 194 kts | 254° |
| 2026-05-07 23:37 | -37.82518 | 144.94220 | 3037 ft | 194 kts | 256° |
| 2026-05-07 23:38 | -37.82727 | 144.92552 | 2970 ft | 192 kts | 257° |
| 2026-05-07 23:38 | -37.82934 | 144.90874 | 2984 ft | 194 kts | 257° |
| 2026-05-07 23:38 | -37.83138 | 144.89212 | 2931 ft | 189 kts | 257° |
| 2026-05-07 23:38 | -37.83217 | 144.87543 | 2588 ft | 197 kts | 278° |
| 2026-05-07 23:39 | -37.82501 | 144.86057 | 2391 ft | 207 kts | 316° |
| 2026-05-07 23:39 | -37.81123 | 144.85387 | 2414 ft | 222 kts | 353° |
| 2026-05-07 23:39 | -37.79558 | 144.85539 | 2458 ft | 226 kts | 2° |
| 2026-05-07 23:39 | -37.78054 | 144.85695 | 2322 ft | 205 kts | 356° |
| 2026-05-07 23:40 | -37.76706 | 144.85622 | 2031 ft | 187 kts | 346° |
| 2026-05-07 23:40 | -37.75450 | 144.85414 | 1754 ft | 175 kts | 342° |
| 2026-05-07 23:40 | -37.74284 | 144.85172 | 1526 ft | 161 kts | 343° |
| 2026-05-07 23:40 | -37.73213 | 144.84958 | 1346 ft | 153 kts | 345° |
| 2026-05-07 23:41 | -37.72162 | 144.84761 | 1143 ft | 151 kts | 343° |
| 2026-05-07 23:41 | -37.71130 | 144.84569 | 958 ft | 149 kts | 343° |
| 2026-05-07 23:41 | -37.70099 | 144.84380 | 724 ft | 147 kts | 344° |
| 2026-05-07 23:41 | -37.69094 | 144.84190 | 561 ft | 146 kts | 344° |
| 2026-05-07 23:42 | -37.68097 | 144.84006 | 446 ft | 140 kts | 345° |
| 2026-05-07 23:42 | -37.67225 | 144.83835 | 442 ft | 107 kts | 353° |
| 2026-05-07 23:42 | -37.66673 | 144.83740 | 442 ft | 44 kts | 351° |
| 2026-05-07 23:42 | -37.66524 | 144.83807 | 442 ft | 13 kts | 65° |
| 2026-05-07 23:43 | -37.66513 | 144.83916 | 442 ft | 11 kts | 94° |
| 2026-05-07 23:43 | -37.66518 | 144.84012 | 442 ft | 10 kts | 94° |
| 2026-05-07 23:43 | -37.66523 | 144.84103 | 442 ft | 11 kts | 93° |
| 2026-05-07 23:43 | -37.66528 | 144.84215 | 442 ft | 13 kts | 93° |
| 2026-05-07 23:44 | -37.66525 | 144.84337 | 442 ft | 14 kts | 81° |
| 2026-05-07 23:44 | -37.66509 | 144.84459 | 442 ft | 14 kts | 81° |
| 2026-05-07 23:44 | -37.66494 | 144.84587 | 442 ft | 15 kts | 81° |
| 2026-05-07 23:44 | -37.66479 | 144.84715 | 442 ft | 14 kts | 85° |
| 2026-05-07 23:45 | -37.66533 | 144.84795 | 442 ft | 12 kts | 165° |
| 2026-05-07 23:45 | -37.66617 | 144.84796 | 442 ft | 12 kts | 179° |
| 2026-05-07 23:45 | -37.66685 | 144.84808 | 442 ft | 8 kts | 170° |
| 2026-05-07 23:45 | -37.66722 | 144.84816 | 442 ft | 0 kts | 172° |
| 2026-05-07 23:46 | -37.66724 | 144.84816 | 442 ft | 0 kts | 194° |
| 2026-05-07 23:46 | -37.66725 | 144.84807 | 442 ft | 1 kts | 297° |
| 2026-05-07 23:46 | -37.66713 | 144.84804 | 442 ft | 2 kts | 353° |
| 2026-05-07 23:46 | -37.66696 | 144.84801 | 442 ft | 5 kts | 353° |
| 2026-05-07 23:47 | -37.66654 | 144.84786 | 442 ft | 6 kts | 318° |
| 2026-05-07 23:47 | -37.66640 | 144.84727 | 442 ft | 7 kts | 266° |
| 2026-05-07 23:47 | -37.66646 | 144.84660 | 442 ft | 7 kts | 260° |
| 2026-05-07 23:47 | -37.66649 | 144.84644 | 442 ft | 0 kts | 261° |
| 2026-05-07 23:49 | -37.66640 | 144.84636 | 442 ft | 1 kts | 12° |
| 2026-05-07 23:49 | -37.66638 | 144.84657 | 442 ft | 4 kts | 93° |
| 2026-05-07 23:49 | -37.66639 | 144.84715 | 442 ft | 7 kts | 90° |
| 2026-05-07 23:49 | -37.66627 | 144.84787 | 442 ft | 3 kts | 106° |
| 2026-05-07 23:50 | -37.66637 | 144.84795 | 442 ft | 1 kts | 151° |
| 2026-05-07 23:50 | -37.66670 | 144.84804 | 442 ft | 3 kts | 166° |
| 2026-05-07 23:50 | -37.66687 | 144.84827 | 442 ft | 4 kts | 105° |
| 2026-05-07 23:50 | -37.66683 | 144.84866 | 442 ft | 4 kts | 82° |
| 2026-05-07 23:51 | -37.66680 | 144.84895 | 442 ft | 2 kts | 83° |
| 2026-05-07 23:51 | -37.66679 | 144.84897 | 442 ft | 0 kts | 83° |